sensor_id;sensor_type;location;lat;lon;timestamp;temperature;humidity
9998;DHT22;5038;53.064;8.624;2023-03-02T00:01:46;2.50;99.90
9998;DHT22;5038;53.064;8.624;2023-03-02T00:04:16;2.40;99.90
9998;DHT22;5038;53.064;8.624;2023-03-02T00:06:49;2.40;99.90
9998;DHT22;5038;53.064;8.624;2023-03-02T00:09:19;2.40;99.90
9998;DHT22;5038;53.064;8.624;2023-03-02T00:11:47;2.40;99.90
9998;DHT22;5038;53.064;8.624;2023-03-02T00:14:15;2.40;99.90
9998;DHT22;5038;53.064;8.624;2023-03-02T00:16:43;2.40;99.90
9998;DHT22;5038;53.064;8.624;2023-03-02T00:19:12;2.40;99.90
9998;DHT22;5038;53.064;8.624;2023-03-02T00:21:40;2.40;99.90
9998;DHT22;5038;53.064;8.624;2023-03-02T00:24:08;2.40;99.90
9998;DHT22;5038;53.064;8.624;2023-03-02T00:26:38;2.40;99.90
9998;DHT22;5038;53.064;8.624;2023-03-02T00:29:06;2.40;99.90
9998;DHT22;5038;53.064;8.624;2023-03-02T00:31:37;2.30;99.90
9998;DHT22;5038;53.064;8.624;2023-03-02T00:34:05;2.30;99.90
9998;DHT22;5038;53.064;8.624;2023-03-02T00:36:33;2.20;99.90
9998;DHT22;5038;53.064;8.624;2023-03-02T00:39:01;2.30;99.90
9998;DHT22;5038;53.064;8.624;2023-03-02T00:41:30;2.30;99.90
9998;DHT22;5038;53.064;8.624;2023-03-02T00:43:59;2.20;99.90
9998;DHT22;5038;53.064;8.624;2023-03-02T00:46:27;2.20;99.90
9998;DHT22;5038;53.064;8.624;2023-03-02T00:48:56;2.20;99.90
9998;DHT22;5038;53.064;8.624;2023-03-02T00:51:24;2.20;99.90
9998;DHT22;5038;53.064;8.624;2023-03-02T00:53:52;2.20;99.90
9998;DHT22;5038;53.064;8.624;2023-03-02T00:56:20;2.20;99.90
9998;DHT22;5038;53.064;8.624;2023-03-02T00:58:51;2.10;99.90
9998;DHT22;5038;53.064;8.624;2023-03-02T01:01:20;2.10;99.90
9998;DHT22;5038;53.064;8.624;2023-03-02T01:03:52;2.10;99.90
9998;DHT22;5038;53.064;8.624;2023-03-02T01:06:20;2.10;99.90
9998;DHT22;5038;53.064;8.624;2023-03-02T01:08:48;2.10;99.90
9998;DHT22;5038;53.064;8.624;2023-03-02T01:11:18;2.00;99.90
9998;DHT22;5038;53.064;8.624;2023-03-02T01:13:47;2.00;99.90
9998;DHT22;5038;53.064;8.624;2023-03-02T01:16:16;2.00;99.90
9998;DHT22;5038;53.064;8.624;2023-03-02T01:18:45;2.00;99.90
9998;DHT22;5038;53.064;8.624;2023-03-02T01:21:14;2.00;99.90
9998;DHT22;5038;53.064;8.624;2023-03-02T01:23:43;2.00;99.90
9998;DHT22;5038;53.064;8.624;2023-03-02T01:26:11;1.90;99.90
9998;DHT22;5038;53.064;8.624;2023-03-02T01:28:39;1.90;99.90
9998;DHT22;5038;53.064;8.624;2023-03-02T01:31:07;1.90;99.90
9998;DHT22;5038;53.064;8.624;2023-03-02T01:33:35;1.90;99.90
9998;DHT22;5038;53.064;8.624;2023-03-02T01:36:06;1.80;99.90
9998;DHT22;5038;53.064;8.624;2023-03-02T01:38:34;1.80;99.90
9998;DHT22;5038;53.064;8.624;2023-03-02T01:41:02;1.80;99.90
9998;DHT22;5038;53.064;8.624;2023-03-02T01:43:31;1.80;99.90
9998;DHT22;5038;53.064;8.624;2023-03-02T01:46:00;1.70;99.90
9998;DHT22;5038;53.064;8.624;2023-03-02T01:48:46;1.70;99.90
9998;DHT22;5038;53.064;8.624;2023-03-02T01:51:26;1.70;99.90
9998;DHT22;5038;53.064;8.624;2023-03-02T01:54:01;1.70;99.90
9998;DHT22;5038;53.064;8.624;2023-03-02T01:56:31;1.60;99.90
9998;DHT22;5038;53.064;8.624;2023-03-02T01:59:06;1.60;99.90
9998;DHT22;5038;53.064;8.624;2023-03-02T02:01:37;1.60;99.90
9998;DHT22;5038;53.064;8.624;2023-03-02T02:04:06;1.60;99.90
9998;DHT22;5038;53.064;8.624;2023-03-02T02:06:39;1.60;99.90
9998;DHT22;5038;53.064;8.624;2023-03-02T02:09:10;1.60;99.90
9998;DHT22;5038;53.064;8.624;2023-03-02T02:11:41;1.60;99.90
9998;DHT22;5038;53.064;8.624;2023-03-02T02:14:10;1.60;99.90
9998;DHT22;5038;53.064;8.624;2023-03-02T02:16:39;1.60;99.90
9998;DHT22;5038;53.064;8.624;2023-03-02T02:19:14;1.60;99.90
9998;DHT22;5038;53.064;8.624;2023-03-02T02:21:46;1.60;99.90
9998;DHT22;5038;53.064;8.624;2023-03-02T02:24:20;1.60;99.90
9998;DHT22;5038;53.064;8.624;2023-03-02T02:26:53;1.60;99.90
9998;DHT22;5038;53.064;8.624;2023-03-02T02:29:25;1.60;99.90
9998;DHT22;5038;53.064;8.624;2023-03-02T02:31:58;1.50;99.90
9998;DHT22;5038;53.064;8.624;2023-03-02T02:34:30;1.50;99.90
9998;DHT22;5038;53.064;8.624;2023-03-02T02:37:03;1.50;99.90
9998;DHT22;5038;53.064;8.624;2023-03-02T02:39:35;1.50;99.90
9998;DHT22;5038;53.064;8.624;2023-03-02T02:42:11;1.50;99.90
9998;DHT22;5038;53.064;8.624;2023-03-02T02:44:40;1.40;99.90
9998;DHT22;5038;53.064;8.624;2023-03-02T02:47:14;1.40;99.90
9998;DHT22;5038;53.064;8.624;2023-03-02T02:49:43;1.40;99.90
9998;DHT22;5038;53.064;8.624;2023-03-02T02:52:15;1.40;99.90
9998;DHT22;5038;53.064;8.624;2023-03-02T02:54:46;1.40;99.90
9998;DHT22;5038;53.064;8.624;2023-03-02T02:57:16;1.40;99.90
9998;DHT22;5038;53.064;8.624;2023-03-02T02:59:47;1.40;99.90
9998;DHT22;5038;53.064;8.624;2023-03-02T03:02:17;1.40;99.90
9998;DHT22;5038;53.064;8.624;2023-03-02T03:04:47;1.30;99.90
9998;DHT22;5038;53.064;8.624;2023-03-02T03:07:18;1.30;99.90
9998;DHT22;5038;53.064;8.624;2023-03-02T03:09:52;1.30;99.90
9998;DHT22;5038;53.064;8.624;2023-03-02T03:12:25;1.30;99.90
9998;DHT22;5038;53.064;8.624;2023-03-02T03:14:54;1.30;99.90
9998;DHT22;5038;53.064;8.624;2023-03-02T03:17:22;1.30;99.90
9998;DHT22;5038;53.064;8.624;2023-03-02T03:19:55;1.20;99.90
9998;DHT22;5038;53.064;8.624;2023-03-02T03:22:35;1.30;99.90
9998;DHT22;5038;53.064;8.624;2023-03-02T03:25:05;1.30;99.90
9998;DHT22;5038;53.064;8.624;2023-03-02T03:27:35;1.30;99.90
9998;DHT22;5038;53.064;8.624;2023-03-02T03:30:05;1.30;99.90
9998;DHT22;5038;53.064;8.624;2023-03-02T03:32:34;1.30;99.90
9998;DHT22;5038;53.064;8.624;2023-03-02T03:35:04;1.30;99.90
9998;DHT22;5038;53.064;8.624;2023-03-02T03:37:35;1.20;99.90
9998;DHT22;5038;53.064;8.624;2023-03-02T03:40:05;1.30;99.90
9998;DHT22;5038;53.064;8.624;2023-03-02T03:42:38;1.20;99.90
9998;DHT22;5038;53.064;8.624;2023-03-02T03:45:07;1.20;99.90
9998;DHT22;5038;53.064;8.624;2023-03-02T03:47:37;1.20;99.90
9998;DHT22;5038;53.064;8.624;2023-03-02T03:50:07;1.20;99.90
9998;DHT22;5038;53.064;8.624;2023-03-02T03:52:36;1.20;99.90
9998;DHT22;5038;53.064;8.624;2023-03-02T03:55:13;1.20;99.90
9998;DHT22;5038;53.064;8.624;2023-03-02T03:57:44;1.20;99.90
9998;DHT22;5038;53.064;8.624;2023-03-02T04:00:15;1.20;99.90
9998;DHT22;5038;53.064;8.624;2023-03-02T04:02:56;1.10;99.90
9998;DHT22;5038;53.064;8.624;2023-03-02T04:05:26;1.10;99.90
9998;DHT22;5038;53.064;8.624;2023-03-02T04:07:57;1.00;99.90
9998;DHT22;5038;53.064;8.624;2023-03-02T04:10:29;1.00;99.90
9998;DHT22;5038;53.064;8.624;2023-03-02T04:12:59;1.00;99.90
9998;DHT22;5038;53.064;8.624;2023-03-02T04:15:28;1.00;99.90
9998;DHT22;5038;53.064;8.624;2023-03-02T04:17:58;1.00;99.90
9998;DHT22;5038;53.064;8.624;2023-03-02T04:20:27;1.00;99.90
9998;DHT22;5038;53.064;8.624;2023-03-02T04:22:56;0.90;99.90
9998;DHT22;5038;53.064;8.624;2023-03-02T04:25:26;0.90;99.90
9998;DHT22;5038;53.064;8.624;2023-03-02T04:28:01;0.90;99.90
9998;DHT22;5038;53.064;8.624;2023-03-02T04:30:34;0.90;99.90
9998;DHT22;5038;53.064;8.624;2023-03-02T04:33:03;0.90;99.90
9998;DHT22;5038;53.064;8.624;2023-03-02T04:35:32;0.90;99.90
9998;DHT22;5038;53.064;8.624;2023-03-02T04:38:02;0.90;99.90
9998;DHT22;5038;53.064;8.624;2023-03-02T04:40:30;0.90;99.90
9998;DHT22;5038;53.064;8.624;2023-03-02T04:42:58;0.90;99.90
9998;DHT22;5038;53.064;8.624;2023-03-02T04:45:28;0.90;99.90
9998;DHT22;5038;53.064;8.624;2023-03-02T04:47:56;0.90;99.90
9998;DHT22;5038;53.064;8.624;2023-03-02T04:50:24;0.90;99.90
9998;DHT22;5038;53.064;8.624;2023-03-02T04:52:52;0.80;99.90
9998;DHT22;5038;53.064;8.624;2023-03-02T04:55:23;0.80;99.90
9998;DHT22;5038;53.064;8.624;2023-03-02T04:57:51;0.80;99.90
9998;DHT22;5038;53.064;8.624;2023-03-02T05:00:19;0.80;99.90
9998;DHT22;5038;53.064;8.624;2023-03-02T05:02:49;0.80;99.90
9998;DHT22;5038;53.064;8.624;2023-03-02T05:05:19;0.80;99.90
9998;DHT22;5038;53.064;8.624;2023-03-02T05:07:48;0.80;99.90
9998;DHT22;5038;53.064;8.624;2023-03-02T05:10:20;0.80;99.90
9998;DHT22;5038;53.064;8.624;2023-03-02T05:12:48;0.80;99.90
9998;DHT22;5038;53.064;8.624;2023-03-02T05:15:26;0.80;99.90
9998;DHT22;5038;53.064;8.624;2023-03-02T05:17:56;0.80;99.90
9998;DHT22;5038;53.064;8.624;2023-03-02T05:20:25;0.70;99.90
9998;DHT22;5038;53.064;8.624;2023-03-02T05:22:57;0.70;99.90
9998;DHT22;5038;53.064;8.624;2023-03-02T05:25:27;0.70;99.90
9998;DHT22;5038;53.064;8.624;2023-03-02T05:27:56;0.70;99.90
9998;DHT22;5038;53.064;8.624;2023-03-02T05:30:24;0.70;99.90
9998;DHT22;5038;53.064;8.624;2023-03-02T05:32:53;0.60;99.90
9998;DHT22;5038;53.064;8.624;2023-03-02T05:35:23;0.60;99.90
9998;DHT22;5038;53.064;8.624;2023-03-02T05:37:51;0.50;99.90
9998;DHT22;5038;53.064;8.624;2023-03-02T05:40:20;0.50;99.90
9998;DHT22;5038;53.064;8.624;2023-03-02T05:42:48;0.60;99.90
9998;DHT22;5038;53.064;8.624;2023-03-02T05:45:19;0.60;99.90
9998;DHT22;5038;53.064;8.624;2023-03-02T05:47:47;0.50;99.90
9998;DHT22;5038;53.064;8.624;2023-03-02T05:50:15;0.50;99.90
9998;DHT22;5038;53.064;8.624;2023-03-02T05:52:45;0.50;99.90
9998;DHT22;5038;53.064;8.624;2023-03-02T05:55:14;0.50;99.90
9998;DHT22;5038;53.064;8.624;2023-03-02T05:57:44;0.50;99.90
9998;DHT22;5038;53.064;8.624;2023-03-02T06:00:13;0.50;99.90
9998;DHT22;5038;53.064;8.624;2023-03-02T06:02:41;0.50;99.90
9998;DHT22;5038;53.064;8.624;2023-03-02T06:05:11;0.50;99.90
9998;DHT22;5038;53.064;8.624;2023-03-02T06:07:40;0.50;99.90
9998;DHT22;5038;53.064;8.624;2023-03-02T06:10:12;0.50;99.90
9998;DHT22;5038;53.064;8.624;2023-03-02T06:12:40;0.50;99.90
9998;DHT22;5038;53.064;8.624;2023-03-02T06:15:09;0.50;99.90
9998;DHT22;5038;53.064;8.624;2023-03-02T06:17:37;0.50;99.90
9998;DHT22;5038;53.064;8.624;2023-03-02T06:20:06;0.60;99.90
9998;DHT22;5038;53.064;8.624;2023-03-02T06:22:37;0.60;99.90
9998;DHT22;5038;53.064;8.624;2023-03-02T06:25:08;0.60;99.90
9998;DHT22;5038;53.064;8.624;2023-03-02T06:27:39;0.60;99.90
9998;DHT22;5038;53.064;8.624;2023-03-02T06:30:10;0.60;99.90
9998;DHT22;5038;53.064;8.624;2023-03-02T06:32:40;0.60;99.90
9998;DHT22;5038;53.064;8.624;2023-03-02T06:35:09;0.60;99.90
9998;DHT22;5038;53.064;8.624;2023-03-02T06:37:38;0.50;99.90
9998;DHT22;5038;53.064;8.624;2023-03-02T06:40:10;0.50;99.90
9998;DHT22;5038;53.064;8.624;2023-03-02T06:42:41;0.50;99.90
9998;DHT22;5038;53.064;8.624;2023-03-02T06:45:10;0.50;99.90
9998;DHT22;5038;53.064;8.624;2023-03-02T06:47:38;0.50;99.90
9998;DHT22;5038;53.064;8.624;2023-03-02T06:50:07;0.50;99.90
9998;DHT22;5038;53.064;8.624;2023-03-02T06:52:35;0.50;99.90
9998;DHT22;5038;53.064;8.624;2023-03-02T06:55:04;0.50;99.90
9998;DHT22;5038;53.064;8.624;2023-03-02T06:57:33;0.50;99.90
9998;DHT22;5038;53.064;8.624;2023-03-02T07:00:04;0.50;99.90
9998;DHT22;5038;53.064;8.624;2023-03-02T07:02:35;0.50;99.90
9998;DHT22;5038;53.064;8.624;2023-03-02T07:05:05;0.50;99.90
9998;DHT22;5038;53.064;8.624;2023-03-02T07:07:33;0.60;99.90
9998;DHT22;5038;53.064;8.624;2023-03-02T07:10:01;0.60;99.90
9998;DHT22;5038;53.064;8.624;2023-03-02T07:12:30;0.60;99.90
9998;DHT22;5038;53.064;8.624;2023-03-02T07:14:58;0.60;99.90
9998;DHT22;5038;53.064;8.624;2023-03-02T07:17:27;0.50;99.90
9998;DHT22;5038;53.064;8.624;2023-03-02T07:19:55;0.50;99.90
9998;DHT22;5038;53.064;8.624;2023-03-02T07:22:23;0.50;99.90
9998;DHT22;5038;53.064;8.624;2023-03-02T07:24:51;0.50;99.90
9998;DHT22;5038;53.064;8.624;2023-03-02T07:27:20;0.50;99.90
9998;DHT22;5038;53.064;8.624;2023-03-02T07:29:48;0.50;99.90
9998;DHT22;5038;53.064;8.624;2023-03-02T07:32:16;0.50;99.90
9998;DHT22;5038;53.064;8.624;2023-03-02T07:34:45;0.50;99.90
9998;DHT22;5038;53.064;8.624;2023-03-02T07:37:13;0.50;99.90
9998;DHT22;5038;53.064;8.624;2023-03-02T07:39:42;0.60;99.90
9998;DHT22;5038;53.064;8.624;2023-03-02T07:42:11;0.60;99.90
9998;DHT22;5038;53.064;8.624;2023-03-02T07:44:41;0.60;99.90
9998;DHT22;5038;53.064;8.624;2023-03-02T07:47:09;0.60;99.90
9998;DHT22;5038;53.064;8.624;2023-03-02T07:49:37;0.60;99.90
9998;DHT22;5038;53.064;8.624;2023-03-02T07:52:07;0.60;99.90
9998;DHT22;5038;53.064;8.624;2023-03-02T07:54:35;0.50;99.90
9998;DHT22;5038;53.064;8.624;2023-03-02T07:57:03;0.50;99.90
9998;DHT22;5038;53.064;8.624;2023-03-02T07:59:31;0.50;99.90
9998;DHT22;5038;53.064;8.624;2023-03-02T08:01:59;0.50;99.90
9998;DHT22;5038;53.064;8.624;2023-03-02T08:04:27;0.50;99.90
9998;DHT22;5038;53.064;8.624;2023-03-02T08:06:55;0.50;99.90
9998;DHT22;5038;53.064;8.624;2023-03-02T08:09:25;0.60;99.90
9998;DHT22;5038;53.064;8.624;2023-03-02T08:11:53;0.50;99.90
9998;DHT22;5038;53.064;8.624;2023-03-02T08:14:21;0.60;99.90
9998;DHT22;5038;53.064;8.624;2023-03-02T08:16:49;0.60;99.90
9998;DHT22;5038;53.064;8.624;2023-03-02T08:19:18;0.60;99.90
9998;DHT22;5038;53.064;8.624;2023-03-02T08:21:46;0.60;99.90
9998;DHT22;5038;53.064;8.624;2023-03-02T08:24:14;0.70;99.90
9998;DHT22;5038;53.064;8.624;2023-03-02T08:26:44;0.70;99.90
9998;DHT22;5038;53.064;8.624;2023-03-02T08:29:12;0.70;99.90
9998;DHT22;5038;53.064;8.624;2023-03-02T08:31:40;0.70;99.90
9998;DHT22;5038;53.064;8.624;2023-03-02T08:34:09;0.80;99.90
9998;DHT22;5038;53.064;8.624;2023-03-02T08:36:38;0.80;99.90
9998;DHT22;5038;53.064;8.624;2023-03-02T08:39:06;0.80;99.90
9998;DHT22;5038;53.064;8.624;2023-03-02T08:41:34;0.80;99.90
9998;DHT22;5038;53.064;8.624;2023-03-02T08:44:04;0.90;99.90
9998;DHT22;5038;53.064;8.624;2023-03-02T08:46:33;0.90;99.90
9998;DHT22;5038;53.064;8.624;2023-03-02T08:49:01;0.90;99.90
9998;DHT22;5038;53.064;8.624;2023-03-02T08:51:29;0.90;99.90
9998;DHT22;5038;53.064;8.624;2023-03-02T08:53:58;1.00;99.90
9998;DHT22;5038;53.064;8.624;2023-03-02T08:56:28;1.00;99.90
9998;DHT22;5038;53.064;8.624;2023-03-02T08:58:58;1.00;99.90
9998;DHT22;5038;53.064;8.624;2023-03-02T09:01:29;1.00;99.90
9998;DHT22;5038;53.064;8.624;2023-03-02T09:03:59;1.00;99.90
9998;DHT22;5038;53.064;8.624;2023-03-02T09:06:29;1.00;99.90
9998;DHT22;5038;53.064;8.624;2023-03-02T09:08:57;1.10;99.90
9998;DHT22;5038;53.064;8.624;2023-03-02T09:11:26;1.10;99.90
9998;DHT22;5038;53.064;8.624;2023-03-02T09:13:54;1.10;99.90
9998;DHT22;5038;53.064;8.624;2023-03-02T09:16:22;1.10;99.90
9998;DHT22;5038;53.064;8.624;2023-03-02T09:18:53;1.10;99.90
9998;DHT22;5038;53.064;8.624;2023-03-02T09:21:21;1.10;99.90
9998;DHT22;5038;53.064;8.624;2023-03-02T09:23:50;1.10;99.90
9998;DHT22;5038;53.064;8.624;2023-03-02T09:26:19;1.10;99.90
9998;DHT22;5038;53.064;8.624;2023-03-02T09:28:47;1.20;99.90
9998;DHT22;5038;53.064;8.624;2023-03-02T09:31:15;1.20;99.90
9998;DHT22;5038;53.064;8.624;2023-03-02T09:33:43;1.20;99.90
9998;DHT22;5038;53.064;8.624;2023-03-02T09:36:18;1.20;99.90
9998;DHT22;5038;53.064;8.624;2023-03-02T09:38:47;1.30;99.90
9998;DHT22;5038;53.064;8.624;2023-03-02T09:41:41;1.30;99.90
9998;DHT22;5038;53.064;8.624;2023-03-02T09:44:29;1.30;99.90
9998;DHT22;5038;53.064;8.624;2023-03-02T09:47:02;1.40;99.90
9998;DHT22;5038;53.064;8.624;2023-03-02T09:49:41;1.40;99.90
9998;DHT22;5038;53.064;8.624;2023-03-02T09:52:27;1.40;99.90
9998;DHT22;5038;53.064;8.624;2023-03-02T09:54:58;1.40;99.90
9998;DHT22;5038;53.064;8.624;2023-03-02T09:57:31;1.40;99.90
9998;DHT22;5038;53.064;8.624;2023-03-02T10:00:02;1.50;99.90
9998;DHT22;5038;53.064;8.624;2023-03-02T10:02:47;1.50;99.90
9998;DHT22;5038;53.064;8.624;2023-03-02T10:05:19;1.50;99.90
9998;DHT22;5038;53.064;8.624;2023-03-02T10:07:49;1.60;99.90
9998;DHT22;5038;53.064;8.624;2023-03-02T10:10:24;1.60;99.90
9998;DHT22;5038;53.064;8.624;2023-03-02T10:13:04;1.60;99.90
9998;DHT22;5038;53.064;8.624;2023-03-02T10:15:38;1.60;99.90
9998;DHT22;5038;53.064;8.624;2023-03-02T10:18:16;1.60;99.90
9998;DHT22;5038;53.064;8.624;2023-03-02T10:20:50;1.70;99.90
9998;DHT22;5038;53.064;8.624;2023-03-02T10:23:35;1.70;99.90
9998;DHT22;5038;53.064;8.624;2023-03-02T10:26:13;1.70;99.90
9998;DHT22;5038;53.064;8.624;2023-03-02T10:28:46;1.70;99.90
9998;DHT22;5038;53.064;8.624;2023-03-02T10:31:22;1.70;99.90
9998;DHT22;5038;53.064;8.624;2023-03-02T10:33:51;1.80;99.90
9998;DHT22;5038;53.064;8.624;2023-03-02T10:36:23;1.80;99.90
9998;DHT22;5038;53.064;8.624;2023-03-02T10:38:54;1.90;99.90
9998;DHT22;5038;53.064;8.624;2023-03-02T10:41:26;1.90;99.90
9998;DHT22;5038;53.064;8.624;2023-03-02T10:44:00;2.00;99.90
9998;DHT22;5038;53.064;8.624;2023-03-02T10:46:38;2.00;99.90
9998;DHT22;5038;53.064;8.624;2023-03-02T10:49:24;2.10;99.90
9998;DHT22;5038;53.064;8.624;2023-03-02T10:52:00;2.10;99.90
9998;DHT22;5038;53.064;8.624;2023-03-02T10:54:33;2.20;99.90
9998;DHT22;5038;53.064;8.624;2023-03-02T10:57:04;2.30;99.90
9998;DHT22;5038;53.064;8.624;2023-03-02T10:59:42;2.30;99.90
9998;DHT22;5038;53.064;8.624;2023-03-02T11:02:21;2.30;99.90
9998;DHT22;5038;53.064;8.624;2023-03-02T11:04:53;2.30;99.90
9998;DHT22;5038;53.064;8.624;2023-03-02T11:07:25;2.40;99.90
9998;DHT22;5038;53.064;8.624;2023-03-02T11:10:01;2.30;99.90
9998;DHT22;5038;53.064;8.624;2023-03-02T11:12:30;2.40;99.90
9998;DHT22;5038;53.064;8.624;2023-03-02T11:15:21;2.40;99.90
9998;DHT22;5038;53.064;8.624;2023-03-02T11:17:57;2.40;99.90
9998;DHT22;5038;53.064;8.624;2023-03-02T11:20:29;2.50;99.90
9998;DHT22;5038;53.064;8.624;2023-03-02T11:23:14;2.50;99.90
9998;DHT22;5038;53.064;8.624;2023-03-02T11:25:50;2.50;99.90
9998;DHT22;5038;53.064;8.624;2023-03-02T11:28:35;2.50;99.90
9998;DHT22;5038;53.064;8.624;2023-03-02T11:31:12;2.60;99.90
9998;DHT22;5038;53.064;8.624;2023-03-02T11:33:46;2.70;99.90
9998;DHT22;5038;53.064;8.624;2023-03-02T11:36:21;2.60;99.90
9998;DHT22;5038;53.064;8.624;2023-03-02T11:38:53;2.60;99.90
9998;DHT22;5038;53.064;8.624;2023-03-02T11:41:28;2.60;99.90
9998;DHT22;5038;53.064;8.624;2023-03-02T11:43:59;2.70;99.90
9998;DHT22;5038;53.064;8.624;2023-03-02T11:46:29;2.70;99.90
9998;DHT22;5038;53.064;8.624;2023-03-02T11:49:02;2.80;99.90
9998;DHT22;5038;53.064;8.624;2023-03-02T11:51:33;2.80;99.90
9998;DHT22;5038;53.064;8.624;2023-03-02T11:54:10;2.90;99.90
9998;DHT22;5038;53.064;8.624;2023-03-02T11:56:44;2.90;99.90
9998;DHT22;5038;53.064;8.624;2023-03-02T11:59:16;2.90;99.90
9998;DHT22;5038;53.064;8.624;2023-03-02T12:01:48;2.80;99.90
9998;DHT22;5038;53.064;8.624;2023-03-02T12:04:26;2.70;99.90
9998;DHT22;5038;53.064;8.624;2023-03-02T12:06:55;2.70;99.90
9998;DHT22;5038;53.064;8.624;2023-03-02T12:09:32;2.60;99.90
9998;DHT22;5038;53.064;8.624;2023-03-02T12:12:24;2.60;99.90
9998;DHT22;5038;53.064;8.624;2023-03-02T12:14:54;2.70;99.90
9998;DHT22;5038;53.064;8.624;2023-03-02T12:17:30;2.70;99.90
9998;DHT22;5038;53.064;8.624;2023-03-02T12:20:26;2.80;99.90
9998;DHT22;5038;53.064;8.624;2023-03-02T12:23:08;2.80;99.90
9998;DHT22;5038;53.064;8.624;2023-03-02T12:25:41;2.90;99.90
9998;DHT22;5038;53.064;8.624;2023-03-02T12:28:28;3.00;99.90
9998;DHT22;5038;53.064;8.624;2023-03-02T12:31:02;3.00;99.90
9998;DHT22;5038;53.064;8.624;2023-03-02T12:33:31;3.10;99.90
9998;DHT22;5038;53.064;8.624;2023-03-02T12:36:04;3.10;99.90
9998;DHT22;5038;53.064;8.624;2023-03-02T12:38:37;3.10;99.90
9998;DHT22;5038;53.064;8.624;2023-03-02T12:41:21;3.20;99.90
9998;DHT22;5038;53.064;8.624;2023-03-02T12:44:04;3.20;99.90
9998;DHT22;5038;53.064;8.624;2023-03-02T12:46:34;3.20;99.90
9998;DHT22;5038;53.064;8.624;2023-03-02T12:49:14;3.20;99.90
9998;DHT22;5038;53.064;8.624;2023-03-02T12:51:50;3.20;99.90
9998;DHT22;5038;53.064;8.624;2023-03-02T12:54:20;3.20;99.90
9998;DHT22;5038;53.064;8.624;2023-03-02T12:56:49;3.20;99.90
9998;DHT22;5038;53.064;8.624;2023-03-02T12:59:25;3.20;99.90
9998;DHT22;5038;53.064;8.624;2023-03-02T13:02:04;3.30;99.90
9998;DHT22;5038;53.064;8.624;2023-03-02T13:04:32;3.20;99.90
9998;DHT22;5038;53.064;8.624;2023-03-02T13:07:00;3.30;99.90
9998;DHT22;5038;53.064;8.624;2023-03-02T13:09:28;3.30;99.90
9998;DHT22;5038;53.064;8.624;2023-03-02T13:11:57;3.40;99.90
9998;DHT22;5038;53.064;8.624;2023-03-02T13:14:27;3.40;99.90
9998;DHT22;5038;53.064;8.624;2023-03-02T13:16:58;3.50;99.90
9998;DHT22;5038;53.064;8.624;2023-03-02T13:19:29;3.50;99.90
9998;DHT22;5038;53.064;8.624;2023-03-02T13:21:58;3.60;99.90
9998;DHT22;5038;53.064;8.624;2023-03-02T13:24:32;3.60;99.90
9998;DHT22;5038;53.064;8.624;2023-03-02T13:27:05;3.70;99.90
9998;DHT22;5038;53.064;8.624;2023-03-02T13:29:35;3.70;99.90
9998;DHT22;5038;53.064;8.624;2023-03-02T13:32:21;3.70;99.90
9998;DHT22;5038;53.064;8.624;2023-03-02T13:34:52;3.60;99.90
9998;DHT22;5038;53.064;8.624;2023-03-02T13:37:28;3.60;99.90
9998;DHT22;5038;53.064;8.624;2023-03-02T13:40:00;3.70;99.90
9998;DHT22;5038;53.064;8.624;2023-03-02T13:42:34;3.70;99.90
9998;DHT22;5038;53.064;8.624;2023-03-02T13:45:25;3.70;99.90
9998;DHT22;5038;53.064;8.624;2023-03-02T13:47:55;3.80;99.90
9998;DHT22;5038;53.064;8.624;2023-03-02T13:50:24;3.80;99.90
9998;DHT22;5038;53.064;8.624;2023-03-02T13:52:55;3.80;99.90
9998;DHT22;5038;53.064;8.624;2023-03-02T13:55:24;3.80;99.90
9998;DHT22;5038;53.064;8.624;2023-03-02T13:57:53;3.80;99.90
9998;DHT22;5038;53.064;8.624;2023-03-02T14:00:28;3.90;99.90
9998;DHT22;5038;53.064;8.624;2023-03-02T14:02:57;3.90;99.90
9998;DHT22;5038;53.064;8.624;2023-03-02T14:05:26;3.90;99.90
9998;DHT22;5038;53.064;8.624;2023-03-02T14:07:59;4.00;99.90
9998;DHT22;5038;53.064;8.624;2023-03-02T14:10:28;4.00;99.90
9998;DHT22;5038;53.064;8.624;2023-03-02T14:13:00;4.00;99.90
9998;DHT22;5038;53.064;8.624;2023-03-02T14:15:33;3.90;99.90
9998;DHT22;5038;53.064;8.624;2023-03-02T14:18:10;4.00;99.90
9998;DHT22;5038;53.064;8.624;2023-03-02T14:20:43;4.00;99.90
9998;DHT22;5038;53.064;8.624;2023-03-02T14:23:11;4.00;99.90
9998;DHT22;5038;53.064;8.624;2023-03-02T14:25:39;4.00;99.90
9998;DHT22;5038;53.064;8.624;2023-03-02T14:28:08;4.10;99.90
9998;DHT22;5038;53.064;8.624;2023-03-02T14:30:39;4.10;99.90
9998;DHT22;5038;53.064;8.624;2023-03-02T14:33:15;4.10;99.90
9998;DHT22;5038;53.064;8.624;2023-03-02T14:35:44;4.20;99.90
9998;DHT22;5038;53.064;8.624;2023-03-02T14:38:12;4.20;99.90
9998;DHT22;5038;53.064;8.624;2023-03-02T14:40:40;4.20;99.90
9998;DHT22;5038;53.064;8.624;2023-03-02T14:43:09;4.30;99.90
9998;DHT22;5038;53.064;8.624;2023-03-02T14:45:38;4.30;99.90
9998;DHT22;5038;53.064;8.624;2023-03-02T14:48:06;4.30;99.90
9998;DHT22;5038;53.064;8.624;2023-03-02T14:50:37;4.30;99.90
9998;DHT22;5038;53.064;8.624;2023-03-02T14:53:11;4.30;99.90
9998;DHT22;5038;53.064;8.624;2023-03-02T14:55:42;4.30;99.90
9998;DHT22;5038;53.064;8.624;2023-03-02T14:58:13;4.40;99.90
9998;DHT22;5038;53.064;8.624;2023-03-02T15:00:43;4.40;99.90
9998;DHT22;5038;53.064;8.624;2023-03-02T15:03:13;4.40;99.90
9998;DHT22;5038;53.064;8.624;2023-03-02T15:05:42;4.40;99.90
9998;DHT22;5038;53.064;8.624;2023-03-02T15:08:26;4.40;99.90
9998;DHT22;5038;53.064;8.624;2023-03-02T15:10:54;4.50;99.90
9998;DHT22;5038;53.064;8.624;2023-03-02T15:13:22;4.50;99.90
9998;DHT22;5038;53.064;8.624;2023-03-02T15:15:52;4.50;99.90
9998;DHT22;5038;53.064;8.624;2023-03-02T15:18:21;4.50;99.90
9998;DHT22;5038;53.064;8.624;2023-03-02T15:20:49;4.50;99.90
9998;DHT22;5038;53.064;8.624;2023-03-02T15:23:17;4.50;99.90
9998;DHT22;5038;53.064;8.624;2023-03-02T15:25:46;4.50;99.90
9998;DHT22;5038;53.064;8.624;2023-03-02T15:28:14;4.60;99.90
9998;DHT22;5038;53.064;8.624;2023-03-02T15:30:42;4.60;99.90
9998;DHT22;5038;53.064;8.624;2023-03-02T15:33:11;4.60;99.90
9998;DHT22;5038;53.064;8.624;2023-03-02T15:35:39;4.60;99.90
9998;DHT22;5038;53.064;8.624;2023-03-02T15:38:07;4.60;99.90
9998;DHT22;5038;53.064;8.624;2023-03-02T15:40:37;4.60;99.90
9998;DHT22;5038;53.064;8.624;2023-03-02T15:43:06;4.60;99.90
9998;DHT22;5038;53.064;8.624;2023-03-02T15:45:34;4.60;99.90
9998;DHT22;5038;53.064;8.624;2023-03-02T15:48:02;4.60;99.90
9998;DHT22;5038;53.064;8.624;2023-03-02T15:50:32;4.60;99.90
9998;DHT22;5038;53.064;8.624;2023-03-02T15:53:00;4.60;99.90
9998;DHT22;5038;53.064;8.624;2023-03-02T15:55:28;4.50;99.90
9998;DHT22;5038;53.064;8.624;2023-03-02T15:57:56;4.50;99.90
9998;DHT22;5038;53.064;8.624;2023-03-02T16:00:25;4.50;99.90
9998;DHT22;5038;53.064;8.624;2023-03-02T16:02:54;4.50;99.90
9998;DHT22;5038;53.064;8.624;2023-03-02T16:05:22;4.50;99.90
9998;DHT22;5038;53.064;8.624;2023-03-02T16:07:51;4.50;99.90
9998;DHT22;5038;53.064;8.624;2023-03-02T16:10:19;4.50;99.90
9998;DHT22;5038;53.064;8.624;2023-03-02T16:12:50;4.50;99.90
9998;DHT22;5038;53.064;8.624;2023-03-02T16:15:18;4.40;99.90
9998;DHT22;5038;53.064;8.624;2023-03-02T16:17:46;4.40;99.90
9998;DHT22;5038;53.064;8.624;2023-03-02T16:20:15;4.40;99.90
9998;DHT22;5038;53.064;8.624;2023-03-02T16:22:43;4.40;99.90
9998;DHT22;5038;53.064;8.624;2023-03-02T16:25:12;4.40;99.90
9998;DHT22;5038;53.064;8.624;2023-03-02T16:27:40;4.30;99.90
9998;DHT22;5038;53.064;8.624;2023-03-02T16:30:14;4.30;99.90
9998;DHT22;5038;53.064;8.624;2023-03-02T16:32:42;4.30;99.90
9998;DHT22;5038;53.064;8.624;2023-03-02T16:35:11;4.30;99.90
9998;DHT22;5038;53.064;8.624;2023-03-02T16:37:39;4.20;99.90
9998;DHT22;5038;53.064;8.624;2023-03-02T16:40:11;4.20;99.90
9998;DHT22;5038;53.064;8.624;2023-03-02T16:42:41;4.20;99.90